createdAt,value
2018-06-20T00:00:45.879Z,72.17
2018-06-20T00:03:15.854Z,71.88
2018-06-20T00:05:44.504Z,71.48
2018-06-20T00:08:13.140Z,72.46
2018-06-20T00:10:41.801Z,73.34
2018-06-20T00:13:10.473Z,73.34
2018-06-20T00:15:39.103Z,73.30
2018-06-20T00:18:07.822Z,73.41
2018-06-20T00:20:36.430Z,73.84
2018-06-20T00:23:05.063Z,74.47
2018-06-20T00:25:33.752Z,74.97
2018-06-20T00:28:02.463Z,74.86
2018-06-20T00:30:31.127Z,74.87
2018-06-20T00:32:59.821Z,75.20
2018-06-20T00:35:28.527Z,76.20
2018-06-20T00:37:57.195Z,75.65
2018-06-20T00:40:25.875Z,76.32
2018-06-20T00:42:54.783Z,77.16
2018-06-20T00:45:23.482Z,78.00
2018-06-20T00:47:52.169Z,78.67
2018-06-20T00:50:20.852Z,78.10
2018-06-20T00:52:49.536Z,78.03
2018-06-20T00:55:28.363Z,77.92
2018-06-20T00:57:57.011Z,77.52
2018-06-20T01:00:25.707Z,78.20
2018-06-20T01:02:54.279Z,78.30
2018-06-20T01:05:22.949Z,77.92
2018-06-20T01:07:51.587Z,79.67
2018-06-20T01:10:20.271Z,80.09
2018-06-20T01:12:48.946Z,79.64
2018-06-20T01:15:17.635Z,78.81
2018-06-20T01:17:46.509Z,80.36
2018-06-20T01:20:15.256Z,79.96
2018-06-20T01:22:43.916Z,80.17
2018-06-20T01:25:12.630Z,79.45
2018-06-20T01:27:41.344Z,79.48
2018-06-20T01:30:10.056Z,78.67
2018-06-20T01:32:38.755Z,79.60
2018-06-20T01:35:07.451Z,80.13
2018-06-20T01:37:36.183Z,79.79
2018-06-20T01:40:04.853Z,79.56
2018-06-20T01:42:33.516Z,80.03
2018-06-20T01:45:02.224Z,80.56
2018-06-20T01:47:30.927Z,80.72
2018-06-20T01:49:59.615Z,80.29
2018-06-20T01:52:28.304Z,80.35
2018-06-20T01:54:56.997Z,80.91
2018-06-20T01:57:25.635Z,81.22
2018-06-20T01:59:54.413Z,81.29
2018-06-20T02:02:23.109Z,80.76
2018-06-20T02:04:51.787Z,81.32
2018-06-20T02:07:20.539Z,81.53
2018-06-20T02:09:49.241Z,81.73
2018-06-20T02:12:18.086Z,81.15
2018-06-20T02:14:46.784Z,81.54
2018-06-20T02:17:15.454Z,81.60
2018-06-20T02:19:44.122Z,81.15
2018-06-20T02:22:12.847Z,81.70
2018-06-20T02:24:42.211Z,81.38
2018-06-20T02:27:10.914Z,81.46
2018-06-20T02:29:39.580Z,81.44
2018-06-20T02:32:08.268Z,81.77
2018-06-20T02:34:36.947Z,81.54
2018-06-20T02:37:06.380Z,82.05
2018-06-20T02:39:35.268Z,81.71
2018-06-20T02:42:03.982Z,81.90
2018-06-20T02:44:32.631Z,82.05
2018-06-20T02:47:01.287Z,81.65
2018-06-20T02:49:29.976Z,81.77
2018-06-20T02:51:58.649Z,81.57
2018-06-20T02:54:27.941Z,81.16
2018-06-20T02:56:56.636Z,81.81
2018-06-20T02:59:25.280Z,82.31
2018-06-20T03:01:53.960Z,82.43
2018-06-20T03:04:22.632Z,83.44
2018-06-20T03:06:51.371Z,83.63
2018-06-20T03:09:25.567Z,83.99
2018-06-20T03:11:54.263Z,84.61
2018-06-20T03:14:23.819Z,84.36
2018-06-20T03:16:52.489Z,83.99
2018-06-20T03:19:21.151Z,83.69
2018-06-20T03:21:49.853Z,83.31
2018-06-20T03:24:18.675Z,83.76
2018-06-20T03:26:47.327Z,83.98
2018-06-20T03:29:15.989Z,84.26
2018-06-20T03:31:44.631Z,83.73
2018-06-20T03:34:13.391Z,83.72
2018-06-20T03:36:42.091Z,83.47
2018-06-20T03:39:11.195Z,83.21
2018-06-20T03:41:40.296Z,82.61
2018-06-20T03:44:08.999Z,83.08
2018-06-20T03:46:37.647Z,82.04
2018-06-20T03:49:06.382Z,82.44
2018-06-20T03:51:35.145Z,83.08
2018-06-20T03:54:03.822Z,82.87
2018-06-20T03:56:32.478Z,82.36
2018-06-20T03:59:01.179Z,82.47
2018-06-20T04:01:29.895Z,82.60
2018-06-20T04:03:58.576Z,82.38
2018-06-20T04:06:27.309Z,82.31
2018-06-20T04:08:56.023Z,81.66
2018-06-20T04:11:24.739Z,81.83
2018-06-20T04:13:53.476Z,81.47
2018-06-20T04:16:22.169Z,80.94
2018-06-20T04:18:50.869Z,81.20
2018-06-20T04:21:19.547Z,81.33
2018-06-20T04:23:48.254Z,80.50
2018-06-20T04:26:16.873Z,80.34
2018-06-20T04:28:45.626Z,80.31
2018-06-20T04:31:14.292Z,79.90
2018-06-20T04:33:42.967Z,79.84
2018-06-20T04:36:11.715Z,79.19
2018-06-20T04:38:40.425Z,78.78
2018-06-20T04:41:09.074Z,78.67
2018-06-20T04:43:37.962Z,78.43
2018-06-20T04:46:06.859Z,77.75
2018-06-20T04:48:36.255Z,77.35
2018-06-20T04:51:04.950Z,77.07
2018-06-20T04:53:33.635Z,77.35
2018-06-20T04:56:02.911Z,77.10
2018-06-20T04:58:31.636Z,76.56
2018-06-20T05:01:00.344Z,76.95
2018-06-20T05:03:28.991Z,76.35
2018-06-20T05:05:57.647Z,75.94
2018-06-20T05:08:26.348Z,75.07
2018-06-20T05:10:55.047Z,75.13
2018-06-20T05:13:23.703Z,75.40
2018-06-20T05:15:52.884Z,74.81
2018-06-20T05:18:21.517Z,74.32
2018-06-20T05:20:50.304Z,74.13
2018-06-20T05:23:19.014Z,73.97
2018-06-20T05:25:47.707Z,73.69
2018-06-20T05:28:16.396Z,73.56
2018-06-20T05:30:48.855Z,73.04
2018-06-20T05:33:17.849Z,73.07
2018-06-20T05:35:46.742Z,73.07
2018-06-20T05:38:15.852Z,72.04
2018-06-20T05:40:44.948Z,70.84
2018-06-20T05:43:13.680Z,71.05
2018-06-20T05:45:42.356Z,71.05
2018-06-20T05:48:11.031Z,70.33
2018-06-20T05:50:39.698Z,70.02
2018-06-20T05:53:08.407Z,70.20
2018-06-20T05:55:37.051Z,69.99
2018-06-20T05:58:05.751Z,69.78
2018-06-20T06:00:34.467Z,68.73
2018-06-20T06:03:03.112Z,68.56
2018-06-20T06:05:31.896Z,68.41
2018-06-20T06:08:06.560Z,67.99
2018-06-20T06:10:35.295Z,67.74
2018-06-20T06:13:03.975Z,68.22
2018-06-20T06:15:32.663Z,68.01
2018-06-20T06:18:01.350Z,68.06
2018-06-20T06:20:30.027Z,68.05
2018-06-20T06:22:58.868Z,68.07
2018-06-20T06:25:27.539Z,68.73
2018-06-20T06:27:56.204Z,68.73
2018-06-20T06:30:25.689Z,68.44
2018-06-20T06:32:54.372Z,67.99
2018-06-20T06:35:23.093Z,68.42
2018-06-20T06:37:51.801Z,68.62
2018-06-20T06:40:20.634Z,68.81
2018-06-20T06:42:49.342Z,68.73
2018-06-20T06:45:18.068Z,69.04
2018-06-20T06:47:46.723Z,68.57
2018-06-20T06:50:15.518Z,68.38
2018-06-20T06:52:44.190Z,67.93
2018-06-20T06:55:12.913Z,67.09
2018-06-20T06:58:45.487Z,66.69
2018-06-20T07:01:14.186Z,66.57
2018-06-20T07:03:43.066Z,66.73
2018-06-20T07:06:11.744Z,64.97
2018-06-20T07:08:40.575Z,65.09
2018-06-20T07:11:09.431Z,64.51
2018-06-20T07:13:38.075Z,64.93
2018-06-20T07:16:06.746Z,63.76
2018-06-20T07:18:35.427Z,64.09
2018-06-20T07:21:04.122Z,63.99
2018-06-20T07:23:32.796Z,63.02
2018-06-20T07:26:01.455Z,64.34
2018-06-20T07:28:30.362Z,64.32
2018-06-20T07:30:59.121Z,63.91
2018-06-20T07:33:27.811Z,64.38
2018-06-20T07:35:56.632Z,64.32
2018-06-20T07:38:25.127Z,64.22
2018-06-20T07:40:53.828Z,63.32
2018-06-20T07:43:22.585Z,63.26
2018-06-20T07:45:51.324Z,62.71
2018-06-20T07:48:19.995Z,62.61
2018-06-20T07:50:48.799Z,62.04
2018-06-20T07:53:17.431Z,62.49
2018-06-20T07:55:46.148Z,62.20
2018-06-20T07:58:20.088Z,61.79
2018-06-20T08:00:54.115Z,61.01
2018-06-20T08:03:28.122Z,60.63
2018-06-20T08:06:02.663Z,58.95
2018-06-20T08:08:36.651Z,58.44
2018-06-20T08:11:10.615Z,58.55
2018-06-20T08:13:44.644Z,59.87
2018-06-20T08:16:18.843Z,57.00
2018-06-20T08:18:52.865Z,55.14
2018-06-20T08:21:21.514Z,54.02
2018-06-20T08:23:50.196Z,54.37
2018-06-20T08:26:19.413Z,53.78
2018-06-20T08:28:48.098Z,53.12
2018-06-20T08:31:16.813Z,53.64
2018-06-20T08:33:45.502Z,53.24
2018-06-20T08:36:14.259Z,52.02
2018-06-20T08:38:42.936Z,52.61
2018-06-20T08:41:11.658Z,52.74
2018-06-20T08:43:40.320Z,51.54
2018-06-20T08:46:08.959Z,50.80
2018-06-20T08:48:37.619Z,51.48
2018-06-20T08:51:06.690Z,50.04
2018-06-20T08:53:35.338Z,49.23
2018-06-20T08:56:04.018Z,49.64
2018-06-20T08:58:32.658Z,51.03
2018-06-20T09:01:02.585Z,50.27
2018-06-20T09:03:31.236Z,47.62
2018-06-20T09:06:05.375Z,46.46
2018-06-20T09:08:39.306Z,47.60
2018-06-20T09:11:13.267Z,47.46
2018-06-20T09:13:47.277Z,48.34
2018-06-20T09:18:29.057Z,47.19
2018-06-20T09:20:57.719Z,47.48
2018-06-20T09:23:26.447Z,48.97
2018-06-20T09:25:55.168Z,48.79
2018-06-20T09:28:23.895Z,48.47
2018-06-20T09:30:52.623Z,46.73
2018-06-20T09:33:21.327Z,46.39
2018-06-20T09:35:50.113Z,45.88
2018-06-20T09:38:18.777Z,46.04
2018-06-20T09:40:47.451Z,46.39
2018-06-20T09:43:16.135Z,46.93
2018-06-20T09:45:44.891Z,48.02
2018-06-20T09:48:13.769Z,47.20
2018-06-20T09:50:48.336Z,46.91
2018-06-20T09:53:17.045Z,47.44
2018-06-20T09:55:45.831Z,47.04
2018-06-20T09:58:15.610Z,48.36
2018-06-20T10:00:50.121Z,47.10
2018-06-20T10:03:24.166Z,46.96
2018-06-20T10:05:58.423Z,47.21
2018-06-20T10:08:32.484Z,46.73
2018-06-20T10:11:06.589Z,46.15
2018-06-20T10:13:40.718Z,44.64
2018-06-20T10:16:09.431Z,44.29
2018-06-20T10:18:38.196Z,45.42
2018-06-20T10:21:06.934Z,45.69
2018-06-20T10:23:35.637Z,44.38
2018-06-20T10:26:04.287Z,42.96
2018-06-20T10:28:33.163Z,42.62
2018-06-20T10:31:02.003Z,43.13
2018-06-20T10:33:30.705Z,42.48
2018-06-20T10:35:59.588Z,43.35
2018-06-20T10:38:28.341Z,44.25
2018-06-20T10:40:57.006Z,45.61
2018-06-20T10:43:25.995Z,44.84
2018-06-20T10:45:59.919Z,44.85
2018-06-20T10:48:28.598Z,43.63
2018-06-20T10:50:57.266Z,42.64
2018-06-20T10:53:25.988Z,42.86
2018-06-20T10:55:54.671Z,43.61
2018-06-20T10:58:28.631Z,42.45
2018-06-20T11:02:03.951Z,42.90
2018-06-20T11:04:37.960Z,42.12
2018-06-20T11:07:12.056Z,43.59
2018-06-20T11:09:46.525Z,44.46
2018-06-20T11:12:20.457Z,43.97
2018-06-20T11:14:49.120Z,44.01
2018-06-20T11:17:17.863Z,43.87
2018-06-20T11:19:46.503Z,45.21
2018-06-20T11:22:15.433Z,45.43
2018-06-20T11:24:44.103Z,44.79
2018-06-20T11:27:12.827Z,45.46
2018-06-20T11:29:41.548Z,44.04
2018-06-20T11:32:10.248Z,44.69
2018-06-20T11:34:38.952Z,45.01
2018-06-20T11:37:07.618Z,48.00
2018-06-20T11:39:36.378Z,46.51
2018-06-20T11:42:05.064Z,46.60
2018-06-20T11:44:33.728Z,48.74
2018-06-20T11:47:07.756Z,48.25
2018-06-20T11:49:36.415Z,47.07
2018-06-20T11:52:09.292Z,46.52
2018-06-20T11:54:37.978Z,48.26
2018-06-20T11:57:06.739Z,48.44
2018-06-20T11:59:40.849Z,48.37
2018-06-20T12:02:15.008Z,47.30
2018-06-20T12:04:49.064Z,46.82
2018-06-20T12:07:23.322Z,47.53
2018-06-20T12:09:57.304Z,48.08
2018-06-20T12:12:31.375Z,48.25
2018-06-20T12:15:05.636Z,47.93
2018-06-20T12:17:39.887Z,48.62
2018-06-20T12:20:13.859Z,49.84
2018-06-20T12:22:47.946Z,50.36
2018-06-20T12:25:21.911Z,49.77
2018-06-20T12:27:55.941Z,49.19
2018-06-20T12:30:29.932Z,50.06
2018-06-20T12:33:04.302Z,48.71
2018-06-20T12:35:38.364Z,47.45
2018-06-20T12:38:12.499Z,48.10
2018-06-20T12:40:46.613Z,46.78
2018-06-20T12:43:20.622Z,47.19
2018-06-20T12:45:53.544Z,46.75
2018-06-20T12:48:22.198Z,48.62
2018-06-20T12:50:50.858Z,48.62
2018-06-20T12:53:19.565Z,49.74
2018-06-20T12:55:48.377Z,49.48
2018-06-20T12:58:17.120Z,49.10
2018-06-20T13:00:45.800Z,47.03
2018-06-20T13:03:14.527Z,47.08
2018-06-20T13:05:43.345Z,47.20
2018-06-20T13:08:12.093Z,49.18
2018-06-20T13:10:40.768Z,49.99
2018-06-20T13:13:09.428Z,49.38
2018-06-20T13:15:38.043Z,49.10
2018-06-20T13:18:06.739Z,49.58
2018-06-20T13:20:35.469Z,49.87
2018-06-20T13:23:04.197Z,50.04
2018-06-20T13:25:34.340Z,50.28
2018-06-20T13:28:03.025Z,49.58
2018-06-20T13:30:31.843Z,48.85
2018-06-20T13:33:05.869Z,47.75
2018-06-20T13:35:40.041Z,47.24
2018-06-20T13:38:14.288Z,46.61
2018-06-20T13:40:48.465Z,46.56
2018-06-20T13:43:22.640Z,46.90
2018-06-20T13:45:56.624Z,47.76
2018-06-20T13:48:31.094Z,48.21
2018-06-20T13:50:59.853Z,49.42
2018-06-20T13:53:29.393Z,50.76
2018-06-20T13:55:58.055Z,50.34
2018-06-20T13:58:27.252Z,50.35
2018-06-20T14:00:55.988Z,51.30
2018-06-20T14:03:25.491Z,51.49
2018-06-20T14:05:56.412Z,50.71
2018-06-20T14:08:25.160Z,50.80
2018-06-20T14:10:53.872Z,50.18
2018-06-20T14:13:22.583Z,51.10
2018-06-20T14:15:51.262Z,50.41
2018-06-20T14:18:19.943Z,50.39
2018-06-20T14:20:54.169Z,49.74
2018-06-20T14:23:22.899Z,48.86
2018-06-20T14:25:51.663Z,48.78
2018-06-20T14:28:20.477Z,48.93
2018-06-20T14:30:54.582Z,47.61
2018-06-20T14:33:29.017Z,47.36
2018-06-20T14:36:02.998Z,47.59
2018-06-20T14:38:37.145Z,46.56
2018-06-20T14:41:11.077Z,46.80
2018-06-20T14:43:45.088Z,46.92
2018-06-20T14:46:15.278Z,47.01
2018-06-20T14:48:44.184Z,46.82
2018-06-20T14:51:12.867Z,46.67
2018-06-20T14:53:41.860Z,47.49
2018-06-20T14:56:10.527Z,48.08
2018-06-20T14:58:39.483Z,46.58
2018-06-20T15:01:08.489Z,47.01
2018-06-20T15:03:37.117Z,47.31
2018-06-20T15:06:05.903Z,48.06
2018-06-20T15:08:34.660Z,48.67
2018-06-20T15:11:03.330Z,48.63
2018-06-20T15:13:32.047Z,47.94
2018-06-20T15:16:06.245Z,47.29
2018-06-20T15:18:34.970Z,46.65
2018-06-20T15:21:03.668Z,46.98
2018-06-20T15:23:32.387Z,46.97
2018-06-20T15:26:06.479Z,46.79
2018-06-20T15:28:40.440Z,46.38
2018-06-20T15:31:14.443Z,46.76
2018-06-20T15:33:48.916Z,47.47
2018-06-20T15:36:22.899Z,47.10
2018-06-20T15:38:51.640Z,47.35
2018-06-20T15:41:20.347Z,47.01
2018-06-20T15:43:49.079Z,47.60
2018-06-20T15:46:17.760Z,47.57
2018-06-20T15:48:46.743Z,47.26
2018-06-20T15:51:15.512Z,47.01
2018-06-20T15:53:44.171Z,47.15
2018-06-20T15:56:12.907Z,47.19
2018-06-20T15:58:41.560Z,47.55
2018-06-20T16:01:10.265Z,47.88
2018-06-20T16:03:38.934Z,47.95
2018-06-20T16:06:07.632Z,48.29
2018-06-20T16:08:40.519Z,47.71
2018-06-20T16:11:09.244Z,48.03
2018-06-20T16:13:37.884Z,47.71
2018-06-20T16:16:06.658Z,47.74
2018-06-20T16:18:35.979Z,47.51
2018-06-20T16:21:10.256Z,48.02
2018-06-20T16:23:44.326Z,48.53
2018-06-20T16:26:18.415Z,48.64
2018-06-20T16:28:52.524Z,48.33
2018-06-20T16:31:21.254Z,48.13
2018-06-20T16:33:50.068Z,48.03
2018-06-20T16:36:18.751Z,47.02
2018-06-20T16:38:47.498Z,47.49
2018-06-20T16:41:16.275Z,47.35
2018-06-20T16:43:45.089Z,47.52
2018-06-20T16:46:13.703Z,47.70
2018-06-20T16:48:42.418Z,47.48
2018-06-20T16:51:11.080Z,48.20
2018-06-20T16:53:39.766Z,48.41
2018-06-20T16:56:08.500Z,48.53
2018-06-20T16:58:37.287Z,48.77
2018-06-20T17:01:11.995Z,48.97
2018-06-20T17:03:40.710Z,48.97
2018-06-20T17:06:09.465Z,49.45
2018-06-20T17:08:38.174Z,49.16
2018-06-20T17:11:06.937Z,50.04
2018-06-20T17:13:40.937Z,49.90
2018-06-20T17:16:14.966Z,49.30
2018-06-20T17:18:48.986Z,48.79
2018-06-20T17:21:23.003Z,48.68
2018-06-20T17:23:57.050Z,48.62
2018-06-20T17:26:28.393Z,49.18
2018-06-20T17:28:57.148Z,49.19
2018-06-20T17:31:26.855Z,49.09
2018-06-20T17:33:55.634Z,48.87
2018-06-20T17:36:24.340Z,49.07
2018-06-20T17:38:53.105Z,48.87
2018-06-20T17:41:21.933Z,49.00
2018-06-20T17:43:50.691Z,49.10
2018-06-20T17:46:19.442Z,48.94
2018-06-20T17:48:48.193Z,48.62
2018-06-20T17:51:17.133Z,49.22
2018-06-20T17:53:46.228Z,49.63
2018-06-20T17:56:15.492Z,49.40
2018-06-20T17:58:44.726Z,49.45
2018-06-20T18:01:13.585Z,50.03
2018-06-20T18:03:42.821Z,49.99
2018-06-20T18:06:17.018Z,49.89
2018-06-20T18:08:51.007Z,50.55
2018-06-20T18:12:25.497Z,50.84
2018-06-20T18:14:59.752Z,50.83
2018-06-20T18:17:28.467Z,51.23
2018-06-20T18:19:57.312Z,51.70
2018-06-20T18:22:26.034Z,51.41
2018-06-20T18:24:54.875Z,51.65
2018-06-20T18:27:23.640Z,51.80
2018-06-20T18:29:52.411Z,52.09
2018-06-20T18:32:21.194Z,52.28
2018-06-20T18:34:50.042Z,52.09
2018-06-20T18:37:18.856Z,52.84
2018-06-20T18:39:52.971Z,53.00
2018-06-20T18:42:21.835Z,53.42
2018-06-20T18:44:50.902Z,53.42
2018-06-20T18:47:25.463Z,53.67
2018-06-20T18:49:54.325Z,53.79
2018-06-20T18:52:23.087Z,53.81
2018-06-20T18:54:51.755Z,54.28
2018-06-20T18:57:25.897Z,54.82
2018-06-20T19:00:00.166Z,54.37
2018-06-20T19:02:34.237Z,54.62
2018-06-20T19:05:08.307Z,54.96
2018-06-20T19:07:42.319Z,55.37
2018-06-20T19:10:11.194Z,55.50
2018-06-20T19:12:41.124Z,55.71
2018-06-20T19:15:09.775Z,55.99
2018-06-20T19:17:38.641Z,56.34
2018-06-20T19:20:07.391Z,56.55
2018-06-20T19:22:36.113Z,56.56
2018-06-20T19:25:05.387Z,56.62
2018-06-20T19:27:34.163Z,57.01
2018-06-20T19:30:02.932Z,57.68
2018-06-20T19:32:31.732Z,57.82
2018-06-20T19:35:00.441Z,58.62
2018-06-20T19:37:29.143Z,58.94
2018-06-20T19:39:58.049Z,58.98
2018-06-20T19:42:26.727Z,59.00
2018-06-20T19:44:55.931Z,59.34
2018-06-20T19:47:24.323Z,59.68
2018-06-20T19:49:53.039Z,60.00
2018-06-20T19:52:21.805Z,60.07
2018-06-20T19:54:50.436Z,59.83
2018-06-20T19:57:19.944Z,60.46
2018-06-20T19:59:48.621Z,60.79
2018-06-20T20:02:17.365Z,60.26
2018-06-20T20:04:46.176Z,60.75
2018-06-20T20:07:14.983Z,60.96
2018-06-20T20:09:43.709Z,60.72
2018-06-20T20:12:12.488Z,60.98
2018-06-20T20:14:41.195Z,61.36
2018-06-20T20:17:09.852Z,61.40
2018-06-20T20:19:38.543Z,61.58
2018-06-20T20:22:07.548Z,61.58
2018-06-20T20:24:36.291Z,61.98
2018-06-20T20:27:05.024Z,62.01
2018-06-20T20:29:33.734Z,62.57
2018-06-20T20:32:02.423Z,62.84
2018-06-20T20:34:31.069Z,62.69
2018-06-20T20:36:59.763Z,62.96
2018-06-20T20:39:28.468Z,62.78
2018-06-20T20:41:57.314Z,62.57
2018-06-20T20:44:26.001Z,62.32
2018-06-20T20:46:54.691Z,62.60
2018-06-20T20:49:24.054Z,63.06
2018-06-20T20:51:52.791Z,64.22
2018-06-20T20:54:21.455Z,67.32
2018-06-20T20:56:50.866Z,69.68
2018-06-20T20:59:19.601Z,71.38
2018-06-20T21:01:48.331Z,71.87
2018-06-20T21:04:17.145Z,72.06
2018-06-20T21:06:45.835Z,72.40
2018-06-20T21:09:16.840Z,72.66
2018-06-20T21:11:45.539Z,73.06
2018-06-20T21:14:14.339Z,73.25
2018-06-20T21:16:43.291Z,73.10
2018-06-20T21:19:12.026Z,73.70
2018-06-20T21:21:41.873Z,73.25
2018-06-20T21:24:11.152Z,73.06
2018-06-20T21:26:39.995Z,73.13
2018-06-20T21:29:08.994Z,73.06
2018-06-20T21:31:39.199Z,73.18
2018-06-20T21:34:07.862Z,73.26
2018-06-20T21:36:36.572Z,73.07
2018-06-20T21:39:07.762Z,73.52
2018-06-20T21:41:36.456Z,73.91
2018-06-20T21:44:05.395Z,74.32
2018-06-20T21:46:34.219Z,73.95
2018-06-20T21:49:03.025Z,74.46
2018-06-20T21:51:33.500Z,74.78
2018-06-20T21:54:02.185Z,75.02
2018-06-20T21:56:31.868Z,75.04
2018-06-20T21:59:00.541Z,75.07
2018-06-20T22:01:29.227Z,75.19
2018-06-20T22:03:58.641Z,74.86
2018-06-20T22:06:27.358Z,75.49
2018-06-20T22:08:56.715Z,74.93
2018-06-20T22:11:25.601Z,75.45
2018-06-20T22:13:54.363Z,75.91
2018-06-20T22:16:24.639Z,75.83
2018-06-20T22:18:53.451Z,76.07
2018-06-20T22:21:22.136Z,76.16
2018-06-20T22:23:53.209Z,76.67
2018-06-20T22:26:22.663Z,76.69
2018-06-20T22:28:51.519Z,77.03
2018-06-20T22:31:20.798Z,76.97
2018-06-20T22:33:49.668Z,76.94
2018-06-20T22:36:18.452Z,77.62
2018-06-20T22:38:48.170Z,77.17
2018-06-20T22:41:16.926Z,76.49
2018-06-20T22:43:45.602Z,76.94
2018-06-20T22:46:14.418Z,76.75
2018-06-20T22:48:43.106Z,77.03
2018-06-20T22:51:11.781Z,76.40
2018-06-20T22:53:40.481Z,76.26
2018-06-20T22:56:10.781Z,77.10
2018-06-20T22:58:39.489Z,77.76
2018-06-20T23:01:08.151Z,78.37
2018-06-20T23:03:36.803Z,78.06
2018-06-20T23:06:05.750Z,78.71
2018-06-20T23:08:34.446Z,78.58
2018-06-20T23:11:03.673Z,78.80
2018-06-20T23:13:33.046Z,79.41
2018-06-20T23:16:01.784Z,79.77
2018-06-20T23:18:30.479Z,79.89
2018-06-20T23:20:59.203Z,80.03
2018-06-20T23:23:27.883Z,79.41
2018-06-20T23:25:56.526Z,80.32
2018-06-20T23:28:25.262Z,80.61
2018-06-20T23:30:53.925Z,81.99
2018-06-20T23:33:22.603Z,82.76
2018-06-20T23:35:51.300Z,82.01
2018-06-20T23:38:20.020Z,82.50
2018-06-20T23:40:48.708Z,81.98
2018-06-20T23:43:18.358Z,81.91
2018-06-20T23:45:48.486Z,82.36
2018-06-20T23:48:17.409Z,83.17
2018-06-20T23:50:46.133Z,82.79
2018-06-20T23:53:14.845Z,83.33
2018-06-20T23:55:43.524Z,83.88
2018-06-20T23:58:12.230Z,83.90
